sensor_id;sensor_type;location;lat;lon;timestamp;P1;durP1;ratioP1;P2;durP2;ratioP2
12972;SDS011;6551;51.056;9.466;2022-12-29T00:01:30;5.40;;;1.50;;
12972;SDS011;6551;51.056;9.466;2022-12-29T00:03:56;4.73;;;1.80;;
12972;SDS011;6551;51.056;9.466;2022-12-29T00:06:22;3.97;;;1.97;;
12972;SDS011;6551;51.056;9.466;2022-12-29T00:08:49;3.27;;;1.57;;
12972;SDS011;6551;51.056;9.466;2022-12-29T00:11:16;2.90;;;1.67;;
12972;SDS011;6551;51.056;9.466;2022-12-29T00:13:43;3.07;;;2.20;;
12972;SDS011;6551;51.056;9.466;2022-12-29T00:16:29;2.60;;;1.60;;
12972;SDS011;6551;51.056;9.466;2022-12-29T00:18:56;3.47;;;2.00;;
12972;SDS011;6551;51.056;9.466;2022-12-29T00:21:23;2.10;;;1.60;;
12972;SDS011;6551;51.056;9.466;2022-12-29T00:24:15;2.43;;;1.63;;
12972;SDS011;6551;51.056;9.466;2022-12-29T00:29:46;3.57;;;1.87;;
12972;SDS011;6551;51.056;9.466;2022-12-29T00:32:31;4.43;;;1.90;;
12972;SDS011;6551;51.056;9.466;2022-12-29T00:35:32;3.17;;;1.60;;
12972;SDS011;6551;51.056;9.466;2022-12-29T00:38:10;2.83;;;1.70;;
12972;SDS011;6551;51.056;9.466;2022-12-29T00:40:56;2.33;;;1.53;;
12972;SDS011;6551;51.056;9.466;2022-12-29T00:43:41;3.13;;;1.33;;
12972;SDS011;6551;51.056;9.466;2022-12-29T00:46:25;3.40;;;1.70;;
12972;SDS011;6551;51.056;9.466;2022-12-29T00:48:50;2.50;;;1.83;;
12972;SDS011;6551;51.056;9.466;2022-12-29T00:51:35;5.53;;;1.63;;
12972;SDS011;6551;51.056;9.466;2022-12-29T00:54:00;3.47;;;1.53;;
12972;SDS011;6551;51.056;9.466;2022-12-29T00:56:26;2.60;;;1.40;;
12972;SDS011;6551;51.056;9.466;2022-12-29T00:58:52;4.57;;;1.50;;
12972;SDS011;6551;51.056;9.466;2022-12-29T01:01:17;1.50;;;1.17;;
12972;SDS011;6551;51.056;9.466;2022-12-29T01:03:43;2.90;;;1.40;;
12972;SDS011;6551;51.056;9.466;2022-12-29T01:06:10;2.93;;;1.80;;
12972;SDS011;6551;51.056;9.466;2022-12-29T01:08:37;3.40;;;1.70;;
12972;SDS011;6551;51.056;9.466;2022-12-29T01:11:04;3.77;;;1.60;;
12972;SDS011;6551;51.056;9.466;2022-12-29T01:13:33;2.77;;;1.50;;
12972;SDS011;6551;51.056;9.466;2022-12-29T01:16:00;2.27;;;1.60;;
12972;SDS011;6551;51.056;9.466;2022-12-29T01:18:26;2.10;;;1.63;;
12972;SDS011;6551;51.056;9.466;2022-12-29T01:21:02;2.77;;;1.77;;
12972;SDS011;6551;51.056;9.466;2022-12-29T01:23:30;1.90;;;1.10;;
12972;SDS011;6551;51.056;9.466;2022-12-29T01:25:56;2.90;;;1.67;;
12972;SDS011;6551;51.056;9.466;2022-12-29T01:28:23;4.20;;;1.93;;
12972;SDS011;6551;51.056;9.466;2022-12-29T01:30:48;2.13;;;1.93;;
12972;SDS011;6551;51.056;9.466;2022-12-29T01:33:14;5.47;;;1.47;;
12972;SDS011;6551;51.056;9.466;2022-12-29T01:35:40;2.20;;;1.70;;
12972;SDS011;6551;51.056;9.466;2022-12-29T01:38:05;1.80;;;1.60;;
12972;SDS011;6551;51.056;9.466;2022-12-29T01:40:32;4.13;;;2.10;;
12972;SDS011;6551;51.056;9.466;2022-12-29T01:42:58;4.13;;;1.70;;
12972;SDS011;6551;51.056;9.466;2022-12-29T01:45:24;2.70;;;1.60;;
12972;SDS011;6551;51.056;9.466;2022-12-29T01:47:57;3.00;;;1.43;;
12972;SDS011;6551;51.056;9.466;2022-12-29T01:50:30;3.13;;;1.57;;
12972;SDS011;6551;51.056;9.466;2022-12-29T01:53:02;2.20;;;1.60;;
12972;SDS011;6551;51.056;9.466;2022-12-29T01:55:44;3.10;;;1.87;;
12972;SDS011;6551;51.056;9.466;2022-12-29T01:58:20;2.93;;;1.93;;
12972;SDS011;6551;51.056;9.466;2022-12-29T02:00:49;2.47;;;1.47;;
12972;SDS011;6551;51.056;9.466;2022-12-29T02:03:16;2.73;;;1.70;;
12972;SDS011;6551;51.056;9.466;2022-12-29T02:05:47;1.53;;;1.10;;
12972;SDS011;6551;51.056;9.466;2022-12-29T02:08:42;5.77;;;1.23;;
12972;SDS011;6551;51.056;9.466;2022-12-29T02:11:11;2.80;;;1.40;;
12972;SDS011;6551;51.056;9.466;2022-12-29T02:13:38;1.97;;;1.23;;
12972;SDS011;6551;51.056;9.466;2022-12-29T02:25:17;2.47;;;1.47;;
12972;SDS011;6551;51.056;9.466;2022-12-29T02:34:29;2.30;;;1.77;;
12972;SDS011;6551;51.056;9.466;2022-12-29T02:39:59;1.83;;;1.17;;
12972;SDS011;6551;51.056;9.466;2022-12-29T02:42:37;3.87;;;1.53;;
12972;SDS011;6551;51.056;9.466;2022-12-29T02:48:24;4.43;;;1.60;;
12972;SDS011;6551;51.056;9.466;2022-12-29T02:51:08;1.73;;;1.47;;
12972;SDS011;6551;51.056;9.466;2022-12-29T02:53:45;5.40;;;1.33;;
12972;SDS011;6551;51.056;9.466;2022-12-29T02:56:30;2.57;;;1.60;;
12972;SDS011;6551;51.056;9.466;2022-12-29T02:58:56;2.50;;;1.57;;
12972;SDS011;6551;51.056;9.466;2022-12-29T03:01:39;3.20;;;1.40;;
12972;SDS011;6551;51.056;9.466;2022-12-29T03:13:12;4.30;;;1.40;;
12972;SDS011;6551;51.056;9.466;2022-12-29T03:21:52;2.77;;;1.30;;
12972;SDS011;6551;51.056;9.466;2022-12-29T03:24:48;1.53;;;1.20;;
12972;SDS011;6551;51.056;9.466;2022-12-29T03:28:01;2.90;;;1.27;;
12972;SDS011;6551;51.056;9.466;2022-12-29T03:30:16;2.10;;;0.83;;
12972;SDS011;6551;51.056;9.466;2022-12-29T03:32:47;1.57;;;1.00;;
12972;SDS011;6551;51.056;9.466;2022-12-29T03:35:19;1.43;;;1.10;;
12972;SDS011;6551;51.056;9.466;2022-12-29T03:37:51;2.13;;;1.30;;
12972;SDS011;6551;51.056;9.466;2022-12-29T03:40:28;3.10;;;1.37;;
12972;SDS011;6551;51.056;9.466;2022-12-29T03:42:55;2.30;;;1.40;;
12972;SDS011;6551;51.056;9.466;2022-12-29T03:45:26;2.30;;;1.40;;
12972;SDS011;6551;51.056;9.466;2022-12-29T03:47:52;1.73;;;1.30;;
12972;SDS011;6551;51.056;9.466;2022-12-29T03:50:18;2.03;;;1.23;;
12972;SDS011;6551;51.056;9.466;2022-12-29T03:52:44;5.87;;;1.70;;
12972;SDS011;6551;51.056;9.466;2022-12-29T03:55:10;6.77;;;1.90;;
12972;SDS011;6551;51.056;9.466;2022-12-29T03:57:36;2.40;;;1.20;;
12972;SDS011;6551;51.056;9.466;2022-12-29T04:00:02;1.27;;;1.10;;
12972;SDS011;6551;51.056;9.466;2022-12-29T04:02:30;1.23;;;1.13;;
12972;SDS011;6551;51.056;9.466;2022-12-29T04:04:56;1.83;;;1.40;;
12972;SDS011;6551;51.056;9.466;2022-12-29T04:07:21;1.77;;;1.20;;
12972;SDS011;6551;51.056;9.466;2022-12-29T04:09:47;2.57;;;1.00;;
12972;SDS011;6551;51.056;9.466;2022-12-29T04:12:13;2.90;;;1.00;;
12972;SDS011;6551;51.056;9.466;2022-12-29T04:14:39;3.00;;;1.40;;
12972;SDS011;6551;51.056;9.466;2022-12-29T04:17:05;1.83;;;1.10;;
12972;SDS011;6551;51.056;9.466;2022-12-29T04:19:31;3.47;;;1.10;;
12972;SDS011;6551;51.056;9.466;2022-12-29T04:21:57;2.43;;;0.80;;
12972;SDS011;6551;51.056;9.466;2022-12-29T04:24:23;2.63;;;0.80;;
12972;SDS011;6551;51.056;9.466;2022-12-29T04:26:48;1.00;;;0.90;;
12972;SDS011;6551;51.056;9.466;2022-12-29T04:29:14;4.20;;;0.93;;
12972;SDS011;6551;51.056;9.466;2022-12-29T04:31:40;3.20;;;0.97;;
12972;SDS011;6551;51.056;9.466;2022-12-29T04:34:06;3.23;;;0.97;;
12972;SDS011;6551;51.056;9.466;2022-12-29T04:36:32;4.60;;;1.17;;
12972;SDS011;6551;51.056;9.466;2022-12-29T04:38:57;1.80;;;1.00;;
12972;SDS011;6551;51.056;9.466;2022-12-29T04:41:23;2.10;;;1.00;;
12972;SDS011;6551;51.056;9.466;2022-12-29T04:43:49;1.73;;;1.23;;
12972;SDS011;6551;51.056;9.466;2022-12-29T04:46:15;1.23;;;0.87;;
12972;SDS011;6551;51.056;9.466;2022-12-29T04:48:41;2.40;;;1.60;;
12972;SDS011;6551;51.056;9.466;2022-12-29T04:51:06;2.80;;;1.60;;
12972;SDS011;6551;51.056;9.466;2022-12-29T04:53:32;2.00;;;1.10;;
12972;SDS011;6551;51.056;9.466;2022-12-29T04:55:58;2.03;;;1.20;;
12972;SDS011;6551;51.056;9.466;2022-12-29T04:58:23;3.80;;;2.07;;
12972;SDS011;6551;51.056;9.466;2022-12-29T05:00:50;7.33;;;3.53;;
12972;SDS011;6551;51.056;9.466;2022-12-29T05:03:16;6.20;;;4.77;;
12972;SDS011;6551;51.056;9.466;2022-12-29T05:05:42;1.20;;;0.90;;
12972;SDS011;6551;51.056;9.466;2022-12-29T05:08:07;2.83;;;2.43;;
12972;SDS011;6551;51.056;9.466;2022-12-29T05:10:33;3.07;;;1.80;;
12972;SDS011;6551;51.056;9.466;2022-12-29T05:12:59;2.63;;;1.47;;
12972;SDS011;6551;51.056;9.466;2022-12-29T05:15:25;2.80;;;2.00;;
12972;SDS011;6551;51.056;9.466;2022-12-29T05:17:51;1.37;;;1.23;;
12972;SDS011;6551;51.056;9.466;2022-12-29T05:20:18;1.43;;;0.73;;
12972;SDS011;6551;51.056;9.466;2022-12-29T05:22:44;2.90;;;1.00;;
12972;SDS011;6551;51.056;9.466;2022-12-29T05:25:10;1.60;;;1.27;;
12972;SDS011;6551;51.056;9.466;2022-12-29T05:27:36;2.20;;;1.30;;
12972;SDS011;6551;51.056;9.466;2022-12-29T05:30:02;1.43;;;0.90;;
12972;SDS011;6551;51.056;9.466;2022-12-29T05:32:28;1.70;;;0.60;;
12972;SDS011;6551;51.056;9.466;2022-12-29T05:34:54;3.07;;;1.57;;
12972;SDS011;6551;51.056;9.466;2022-12-29T05:37:20;0.90;;;0.70;;
12972;SDS011;6551;51.056;9.466;2022-12-29T05:39:45;1.40;;;0.60;;
12972;SDS011;6551;51.056;9.466;2022-12-29T05:42:11;2.10;;;0.60;;
12972;SDS011;6551;51.056;9.466;2022-12-29T05:44:36;1.47;;;0.50;;
12972;SDS011;6551;51.056;9.466;2022-12-29T05:47:02;1.23;;;0.60;;
12972;SDS011;6551;51.056;9.466;2022-12-29T05:49:28;0.80;;;0.73;;
12972;SDS011;6551;51.056;9.466;2022-12-29T05:51:54;1.90;;;0.80;;
12972;SDS011;6551;51.056;9.466;2022-12-29T05:54:19;2.40;;;0.90;;
12972;SDS011;6551;51.056;9.466;2022-12-29T05:56:45;1.53;;;0.70;;
12972;SDS011;6551;51.056;9.466;2022-12-29T05:59:10;1.20;;;0.80;;
12972;SDS011;6551;51.056;9.466;2022-12-29T06:01:36;2.07;;;0.70;;
12972;SDS011;6551;51.056;9.466;2022-12-29T06:04:02;1.00;;;0.87;;
12972;SDS011;6551;51.056;9.466;2022-12-29T06:06:28;1.70;;;1.03;;
12972;SDS011;6551;51.056;9.466;2022-12-29T06:08:54;2.63;;;1.00;;
12972;SDS011;6551;51.056;9.466;2022-12-29T06:11:19;0.80;;;0.67;;
12972;SDS011;6551;51.056;9.466;2022-12-29T06:13:45;1.93;;;0.60;;
12972;SDS011;6551;51.056;9.466;2022-12-29T06:16:11;1.23;;;0.87;;
12972;SDS011;6551;51.056;9.466;2022-12-29T06:18:36;3.03;;;0.90;;
12972;SDS011;6551;51.056;9.466;2022-12-29T06:21:02;0.80;;;0.80;;
12972;SDS011;6551;51.056;9.466;2022-12-29T06:23:30;2.70;;;1.20;;
12972;SDS011;6551;51.056;9.466;2022-12-29T06:25:56;2.60;;;1.37;;
12972;SDS011;6551;51.056;9.466;2022-12-29T06:28:22;2.33;;;0.83;;
12972;SDS011;6551;51.056;9.466;2022-12-29T06:30:48;3.90;;;1.93;;
12972;SDS011;6551;51.056;9.466;2022-12-29T06:33:14;2.10;;;1.40;;
12972;SDS011;6551;51.056;9.466;2022-12-29T06:35:41;5.40;;;1.43;;
12972;SDS011;6551;51.056;9.466;2022-12-29T06:38:08;3.07;;;1.10;;
12972;SDS011;6551;51.056;9.466;2022-12-29T06:40:34;2.70;;;1.40;;
12972;SDS011;6551;51.056;9.466;2022-12-29T06:43:00;2.63;;;1.00;;
12972;SDS011;6551;51.056;9.466;2022-12-29T06:45:25;3.40;;;1.67;;
12972;SDS011;6551;51.056;9.466;2022-12-29T06:47:51;1.80;;;1.10;;
12972;SDS011;6551;51.056;9.466;2022-12-29T06:50:18;1.70;;;1.27;;
12972;SDS011;6551;51.056;9.466;2022-12-29T06:52:43;1.30;;;1.00;;
12972;SDS011;6551;51.056;9.466;2022-12-29T06:55:09;2.07;;;1.20;;
12972;SDS011;6551;51.056;9.466;2022-12-29T06:57:35;2.37;;;1.03;;
12972;SDS011;6551;51.056;9.466;2022-12-29T07:00:00;2.90;;;1.33;;
12972;SDS011;6551;51.056;9.466;2022-12-29T07:02:29;1.20;;;0.70;;
12972;SDS011;6551;51.056;9.466;2022-12-29T07:04:55;1.83;;;0.90;;
12972;SDS011;6551;51.056;9.466;2022-12-29T07:07:21;3.40;;;1.03;;
12972;SDS011;6551;51.056;9.466;2022-12-29T07:09:47;0.97;;;0.70;;
12972;SDS011;6551;51.056;9.466;2022-12-29T07:12:13;2.80;;;0.60;;
12972;SDS011;6551;51.056;9.466;2022-12-29T07:14:39;1.17;;;0.60;;
12972;SDS011;6551;51.056;9.466;2022-12-29T07:17:05;1.13;;;0.80;;
12972;SDS011;6551;51.056;9.466;2022-12-29T07:19:31;2.80;;;1.07;;
12972;SDS011;6551;51.056;9.466;2022-12-29T07:21:58;3.23;;;0.90;;
12972;SDS011;6551;51.056;9.466;2022-12-29T07:24:24;3.77;;;1.60;;
12972;SDS011;6551;51.056;9.466;2022-12-29T07:26:52;1.83;;;1.00;;
12972;SDS011;6551;51.056;9.466;2022-12-29T07:29:18;1.20;;;1.00;;
12972;SDS011;6551;51.056;9.466;2022-12-29T07:31:44;2.40;;;0.80;;
12972;SDS011;6551;51.056;9.466;2022-12-29T07:34:09;3.43;;;0.93;;
12972;SDS011;6551;51.056;9.466;2022-12-29T07:36:35;2.60;;;0.83;;
12972;SDS011;6551;51.056;9.466;2022-12-29T07:39:01;2.17;;;1.03;;
12972;SDS011;6551;51.056;9.466;2022-12-29T07:41:28;2.47;;;0.93;;
12972;SDS011;6551;51.056;9.466;2022-12-29T07:43:54;1.93;;;0.80;;
12972;SDS011;6551;51.056;9.466;2022-12-29T07:46:19;1.27;;;0.80;;
12972;SDS011;6551;51.056;9.466;2022-12-29T07:48:45;2.30;;;1.00;;
12972;SDS011;6551;51.056;9.466;2022-12-29T07:51:11;2.27;;;1.03;;
12972;SDS011;6551;51.056;9.466;2022-12-29T07:53:36;1.20;;;1.00;;
12972;SDS011;6551;51.056;9.466;2022-12-29T07:56:02;0.70;;;0.57;;
12972;SDS011;6551;51.056;9.466;2022-12-29T07:58:28;1.67;;;1.10;;
12972;SDS011;6551;51.056;9.466;2022-12-29T08:00:54;1.43;;;0.80;;
12972;SDS011;6551;51.056;9.466;2022-12-29T08:03:22;2.77;;;1.00;;
12972;SDS011;6551;51.056;9.466;2022-12-29T08:05:48;2.70;;;0.97;;
12972;SDS011;6551;51.056;9.466;2022-12-29T08:08:14;2.00;;;0.90;;
12972;SDS011;6551;51.056;9.466;2022-12-29T08:10:40;2.40;;;0.90;;
12972;SDS011;6551;51.056;9.466;2022-12-29T08:13:06;3.67;;;0.90;;
12972;SDS011;6551;51.056;9.466;2022-12-29T08:15:32;0.83;;;0.70;;
12972;SDS011;6551;51.056;9.466;2022-12-29T08:17:57;1.67;;;0.87;;
12972;SDS011;6551;51.056;9.466;2022-12-29T08:20:23;1.30;;;0.70;;
12972;SDS011;6551;51.056;9.466;2022-12-29T08:22:49;1.30;;;0.80;;
12972;SDS011;6551;51.056;9.466;2022-12-29T08:25:16;1.53;;;0.90;;
12972;SDS011;6551;51.056;9.466;2022-12-29T08:27:42;1.93;;;0.80;;
12972;SDS011;6551;51.056;9.466;2022-12-29T08:30:08;0.90;;;0.70;;
12972;SDS011;6551;51.056;9.466;2022-12-29T08:32:34;1.73;;;0.63;;
12972;SDS011;6551;51.056;9.466;2022-12-29T08:35:00;0.90;;;0.60;;
12972;SDS011;6551;51.056;9.466;2022-12-29T08:37:26;1.30;;;0.80;;
12972;SDS011;6551;51.056;9.466;2022-12-29T08:39:51;1.87;;;0.80;;
12972;SDS011;6551;51.056;9.466;2022-12-29T08:42:17;1.17;;;0.70;;
12972;SDS011;6551;51.056;9.466;2022-12-29T08:44:43;1.97;;;0.90;;
12972;SDS011;6551;51.056;9.466;2022-12-29T08:47:09;1.10;;;0.80;;
12972;SDS011;6551;51.056;9.466;2022-12-29T08:49:36;0.90;;;0.70;;
12972;SDS011;6551;51.056;9.466;2022-12-29T08:52:01;1.50;;;0.80;;
12972;SDS011;6551;51.056;9.466;2022-12-29T08:54:29;1.30;;;1.00;;
12972;SDS011;6551;51.056;9.466;2022-12-29T08:56:54;2.50;;;1.13;;
12972;SDS011;6551;51.056;9.466;2022-12-29T08:59:20;2.93;;;1.43;;
12972;SDS011;6551;51.056;9.466;2022-12-29T09:01:46;2.93;;;1.30;;
12972;SDS011;6551;51.056;9.466;2022-12-29T09:04:12;2.33;;;1.20;;
12972;SDS011;6551;51.056;9.466;2022-12-29T09:06:38;5.97;;;1.80;;
12972;SDS011;6551;51.056;9.466;2022-12-29T09:09:04;4.93;;;1.50;;
12972;SDS011;6551;51.056;9.466;2022-12-29T09:11:30;3.37;;;1.70;;
12972;SDS011;6551;51.056;9.466;2022-12-29T09:13:55;4.37;;;1.63;;
12972;SDS011;6551;51.056;9.466;2022-12-29T09:16:22;2.73;;;1.80;;
12972;SDS011;6551;51.056;9.466;2022-12-29T09:18:49;4.43;;;2.23;;
12972;SDS011;6551;51.056;9.466;2022-12-29T09:21:14;2.50;;;1.90;;
12972;SDS011;6551;51.056;9.466;2022-12-29T09:23:40;3.53;;;1.40;;
12972;SDS011;6551;51.056;9.466;2022-12-29T09:26:06;4.70;;;2.93;;
12972;SDS011;6551;51.056;9.466;2022-12-29T09:28:33;3.77;;;2.80;;
12972;SDS011;6551;51.056;9.466;2022-12-29T09:30:58;4.60;;;1.90;;
12972;SDS011;6551;51.056;9.466;2022-12-29T09:33:25;4.33;;;2.70;;
12972;SDS011;6551;51.056;9.466;2022-12-29T09:35:52;5.43;;;2.03;;
12972;SDS011;6551;51.056;9.466;2022-12-29T09:38:21;1.97;;;1.47;;
12972;SDS011;6551;51.056;9.466;2022-12-29T09:40:50;4.90;;;2.93;;
12972;SDS011;6551;51.056;9.466;2022-12-29T09:46:34;3.40;;;1.60;;
12972;SDS011;6551;51.056;9.466;2022-12-29T09:49:15;3.63;;;2.00;;
12972;SDS011;6551;51.056;9.466;2022-12-29T09:51:45;3.70;;;2.20;;
12972;SDS011;6551;51.056;9.466;2022-12-29T09:57:03;2.37;;;1.30;;
12972;SDS011;6551;51.056;9.466;2022-12-29T09:59:39;5.40;;;1.53;;
12972;SDS011;6551;51.056;9.466;2022-12-29T10:08:19;7.77;;;1.40;;
12972;SDS011;6551;51.056;9.466;2022-12-29T10:10:57;2.23;;;1.40;;
12972;SDS011;6551;51.056;9.466;2022-12-29T10:25:11;2.63;;;1.40;;
12972;SDS011;6551;51.056;9.466;2022-12-29T10:27:47;1.63;;;0.60;;
12972;SDS011;6551;51.056;9.466;2022-12-29T10:30:14;2.20;;;0.70;;
12972;SDS011;6551;51.056;9.466;2022-12-29T10:32:48;3.97;;;0.93;;
12972;SDS011;6551;51.056;9.466;2022-12-29T10:35:22;2.17;;;0.73;;
12972;SDS011;6551;51.056;9.466;2022-12-29T10:37:58;1.83;;;0.83;;
12972;SDS011;6551;51.056;9.466;2022-12-29T10:40:38;5.33;;;2.07;;
12972;SDS011;6551;51.056;9.466;2022-12-29T10:43:31;1.33;;;0.83;;
12972;SDS011;6551;51.056;9.466;2022-12-29T10:46:12;1.60;;;0.70;;
12972;SDS011;6551;51.056;9.466;2022-12-29T10:48:43;11.27;;;5.50;;
12972;SDS011;6551;51.056;9.466;2022-12-29T10:51:13;3.43;;;2.13;;
12972;SDS011;6551;51.056;9.466;2022-12-29T10:56:37;5.37;;;1.40;;
12972;SDS011;6551;51.056;9.466;2022-12-29T10:59:29;1.47;;;0.50;;
12972;SDS011;6551;51.056;9.466;2022-12-29T11:07:29;4.07;;;0.73;;
12972;SDS011;6551;51.056;9.466;2022-12-29T11:09:56;1.50;;;0.57;;
12972;SDS011;6551;51.056;9.466;2022-12-29T11:13:10;1.37;;;0.70;;
12972;SDS011;6551;51.056;9.466;2022-12-29T11:15:49;1.90;;;0.50;;
12972;SDS011;6551;51.056;9.466;2022-12-29T11:21:02;1.03;;;0.30;;
12972;SDS011;6551;51.056;9.466;2022-12-29T11:28:35;0.40;;;0.30;;
12972;SDS011;6551;51.056;9.466;2022-12-29T11:31:03;4.30;;;0.60;;
12972;SDS011;6551;51.056;9.466;2022-12-29T11:33:31;1.23;;;0.50;;
12972;SDS011;6551;51.056;9.466;2022-12-29T11:36:08;1.40;;;0.40;;
12972;SDS011;6551;51.056;9.466;2022-12-29T11:38:40;0.60;;;0.40;;
12972;SDS011;6551;51.056;9.466;2022-12-29T11:41:13;2.87;;;0.60;;
12972;SDS011;6551;51.056;9.466;2022-12-29T11:43:56;1.00;;;0.50;;
12972;SDS011;6551;51.056;9.466;2022-12-29T11:46:28;1.10;;;0.80;;
12972;SDS011;6551;51.056;9.466;2022-12-29T11:48:58;4.50;;;0.90;;
12972;SDS011;6551;51.056;9.466;2022-12-29T11:51:29;2.13;;;0.80;;
12972;SDS011;6551;51.056;9.466;2022-12-29T11:54:09;1.93;;;0.60;;
12972;SDS011;6551;51.056;9.466;2022-12-29T11:57:09;6.10;;;0.80;;
12972;SDS011;6551;51.056;9.466;2022-12-29T11:59:44;2.90;;;0.80;;
12972;SDS011;6551;51.056;9.466;2022-12-29T12:02:20;2.00;;;0.70;;
12972;SDS011;6551;51.056;9.466;2022-12-29T12:05:11;2.57;;;0.67;;
12972;SDS011;6551;51.056;9.466;2022-12-29T12:08:07;2.03;;;0.60;;
12972;SDS011;6551;51.056;9.466;2022-12-29T12:10:45;1.80;;;0.60;;
12972;SDS011;6551;51.056;9.466;2022-12-29T12:13:29;2.07;;;0.80;;
12972;SDS011;6551;51.056;9.466;2022-12-29T12:16:04;2.83;;;0.73;;
12972;SDS011;6551;51.056;9.466;2022-12-29T12:29:45;7.30;;;2.40;;
12972;SDS011;6551;51.056;9.466;2022-12-29T12:32:31;7.30;;;3.83;;
12972;SDS011;6551;51.056;9.466;2022-12-29T12:35:25;3.33;;;0.73;;
12972;SDS011;6551;51.056;9.466;2022-12-29T12:38:25;3.83;;;1.77;;
12972;SDS011;6551;51.056;9.466;2022-12-29T12:41:07;1.87;;;1.10;;
12972;SDS011;6551;51.056;9.466;2022-12-29T12:44:02;2.23;;;1.67;;
12972;SDS011;6551;51.056;9.466;2022-12-29T12:58:07;3.20;;;0.80;;
12972;SDS011;6551;51.056;9.466;2022-12-29T13:13:12;1.27;;;0.47;;
12972;SDS011;6551;51.056;9.466;2022-12-29T13:30:26;1.73;;;0.67;;
12972;SDS011;6551;51.056;9.466;2022-12-29T13:36:00;4.80;;;0.80;;
12972;SDS011;6551;51.056;9.466;2022-12-29T13:38:52;4.40;;;0.80;;
12972;SDS011;6551;51.056;9.466;2022-12-29T13:41:39;3.83;;;0.83;;
12972;SDS011;6551;51.056;9.466;2022-12-29T13:44:35;3.60;;;0.80;;
12972;SDS011;6551;51.056;9.466;2022-12-29T13:47:32;4.10;;;0.70;;
12972;SDS011;6551;51.056;9.466;2022-12-29T13:49:58;1.43;;;0.50;;
12972;SDS011;6551;51.056;9.466;2022-12-29T13:58:44;2.83;;;0.70;;
12972;SDS011;6551;51.056;9.466;2022-12-29T14:01:35;4.20;;;0.93;;
12972;SDS011;6551;51.056;9.466;2022-12-29T14:04:30;4.27;;;0.87;;
12972;SDS011;6551;51.056;9.466;2022-12-29T14:07:19;5.00;;;0.93;;
12972;SDS011;6551;51.056;9.466;2022-12-29T14:09:47;4.20;;;0.77;;
12972;SDS011;6551;51.056;9.466;2022-12-29T14:12:30;2.07;;;0.43;;
12972;SDS011;6551;51.056;9.466;2022-12-29T14:17:37;2.07;;;0.70;;
12972;SDS011;6551;51.056;9.466;2022-12-29T14:20:05;3.87;;;1.10;;
12972;SDS011;6551;51.056;9.466;2022-12-29T14:23:00;5.87;;;1.00;;
12972;SDS011;6551;51.056;9.466;2022-12-29T14:28:41;7.43;;;1.53;;
12972;SDS011;6551;51.056;9.466;2022-12-29T14:36:35;3.53;;;1.10;;
12972;SDS011;6551;51.056;9.466;2022-12-29T14:42:12;4.90;;;2.10;;
12972;SDS011;6551;51.056;9.466;2022-12-29T14:44:51;8.40;;;1.60;;
12972;SDS011;6551;51.056;9.466;2022-12-29T14:47:32;9.47;;;1.93;;
12972;SDS011;6551;51.056;9.466;2022-12-29T14:50:06;4.90;;;1.70;;
12972;SDS011;6551;51.056;9.466;2022-12-29T14:53:10;3.97;;;1.20;;
12972;SDS011;6551;51.056;9.466;2022-12-29T14:55:38;5.00;;;1.60;;
12972;SDS011;6551;51.056;9.466;2022-12-29T14:58:20;5.60;;;1.70;;
12972;SDS011;6551;51.056;9.466;2022-12-29T15:01:00;3.17;;;1.10;;
12972;SDS011;6551;51.056;9.466;2022-12-29T15:03:32;5.60;;;1.40;;
12972;SDS011;6551;51.056;9.466;2022-12-29T15:06:11;4.57;;;2.00;;
12972;SDS011;6551;51.056;9.466;2022-12-29T15:08:45;5.40;;;1.50;;
12972;SDS011;6551;51.056;9.466;2022-12-29T15:11:28;8.33;;;2.97;;
12972;SDS011;6551;51.056;9.466;2022-12-29T15:14:02;11.43;;;6.00;;
12972;SDS011;6551;51.056;9.466;2022-12-29T15:16:48;10.00;;;3.47;;
12972;SDS011;6551;51.056;9.466;2022-12-29T15:19:23;11.90;;;5.47;;
12972;SDS011;6551;51.056;9.466;2022-12-29T15:21:52;13.87;;;7.13;;
12972;SDS011;6551;51.056;9.466;2022-12-29T15:24:19;11.40;;;5.30;;
12972;SDS011;6551;51.056;9.466;2022-12-29T15:26:46;9.33;;;4.73;;
12972;SDS011;6551;51.056;9.466;2022-12-29T15:29:31;13.83;;;3.97;;
12972;SDS011;6551;51.056;9.466;2022-12-29T15:32:17;14.53;;;5.50;;
12972;SDS011;6551;51.056;9.466;2022-12-29T15:34:46;16.03;;;8.30;;
12972;SDS011;6551;51.056;9.466;2022-12-29T15:37:24;19.80;;;9.93;;
12972;SDS011;6551;51.056;9.466;2022-12-29T15:40:00;10.47;;;5.50;;
12972;SDS011;6551;51.056;9.466;2022-12-29T15:45:19;11.10;;;3.73;;
12972;SDS011;6551;51.056;9.466;2022-12-29T15:47:57;18.17;;;8.37;;
12972;SDS011;6551;51.056;9.466;2022-12-29T15:50:42;7.10;;;2.20;;
12972;SDS011;6551;51.056;9.466;2022-12-29T15:53:10;14.67;;;4.07;;
12972;SDS011;6551;51.056;9.466;2022-12-29T15:55:40;12.97;;;5.53;;
12972;SDS011;6551;51.056;9.466;2022-12-29T15:58:19;9.33;;;4.57;;
12972;SDS011;6551;51.056;9.466;2022-12-29T16:00:51;6.97;;;2.90;;
12972;SDS011;6551;51.056;9.466;2022-12-29T16:03:20;9.70;;;3.63;;
12972;SDS011;6551;51.056;9.466;2022-12-29T16:05:54;9.00;;;3.37;;
12972;SDS011;6551;51.056;9.466;2022-12-29T16:08:33;10.83;;;3.47;;
12972;SDS011;6551;51.056;9.466;2022-12-29T16:11:17;7.27;;;2.30;;
12972;SDS011;6551;51.056;9.466;2022-12-29T16:13:50;13.73;;;7.60;;
12972;SDS011;6551;51.056;9.466;2022-12-29T16:16:21;12.13;;;4.50;;
12972;SDS011;6551;51.056;9.466;2022-12-29T16:18:53;12.00;;;5.80;;
12972;SDS011;6551;51.056;9.466;2022-12-29T16:21:32;11.23;;;4.10;;
12972;SDS011;6551;51.056;9.466;2022-12-29T16:24:01;11.83;;;4.97;;
12972;SDS011;6551;51.056;9.466;2022-12-29T16:26:33;11.90;;;4.47;;
12972;SDS011;6551;51.056;9.466;2022-12-29T16:29:01;7.77;;;3.20;;
12972;SDS011;6551;51.056;9.466;2022-12-29T16:34:29;10.17;;;4.80;;
12972;SDS011;6551;51.056;9.466;2022-12-29T16:37:24;8.90;;;3.80;;
12972;SDS011;6551;51.056;9.466;2022-12-29T16:39:51;10.93;;;4.47;;
12972;SDS011;6551;51.056;9.466;2022-12-29T16:42:35;8.63;;;2.70;;
12972;SDS011;6551;51.056;9.466;2022-12-29T16:50:34;6.23;;;2.83;;
12972;SDS011;6551;51.056;9.466;2022-12-29T16:53:03;13.77;;;5.33;;
12972;SDS011;6551;51.056;9.466;2022-12-29T16:55:31;8.80;;;3.83;;
12972;SDS011;6551;51.056;9.466;2022-12-29T16:58:01;10.43;;;2.60;;
12972;SDS011;6551;51.056;9.466;2022-12-29T17:00:28;7.67;;;2.87;;
12972;SDS011;6551;51.056;9.466;2022-12-29T17:02:59;5.83;;;2.07;;
12972;SDS011;6551;51.056;9.466;2022-12-29T17:05:27;8.10;;;2.27;;
12972;SDS011;6551;51.056;9.466;2022-12-29T17:07:53;8.87;;;3.33;;
12972;SDS011;6551;51.056;9.466;2022-12-29T17:10:25;6.80;;;2.10;;
12972;SDS011;6551;51.056;9.466;2022-12-29T17:13:11;7.33;;;1.93;;
12972;SDS011;6551;51.056;9.466;2022-12-29T17:15:38;10.03;;;2.80;;
12972;SDS011;6551;51.056;9.466;2022-12-29T17:18:04;4.43;;;1.07;;
12972;SDS011;6551;51.056;9.466;2022-12-29T17:20:31;3.87;;;1.00;;
12972;SDS011;6551;51.056;9.466;2022-12-29T17:22:58;4.50;;;1.37;;
12972;SDS011;6551;51.056;9.466;2022-12-29T17:25:34;5.63;;;1.10;;
12972;SDS011;6551;51.056;9.466;2022-12-29T17:28:03;7.60;;;1.73;;
12972;SDS011;6551;51.056;9.466;2022-12-29T17:30:41;5.37;;;1.30;;
12972;SDS011;6551;51.056;9.466;2022-12-29T17:33:11;5.57;;;1.17;;
12972;SDS011;6551;51.056;9.466;2022-12-29T17:35:39;11.97;;;2.67;;
12972;SDS011;6551;51.056;9.466;2022-12-29T17:38:16;8.07;;;1.93;;
12972;SDS011;6551;51.056;9.466;2022-12-29T17:40:47;3.77;;;1.30;;
12972;SDS011;6551;51.056;9.466;2022-12-29T17:43:14;7.57;;;1.40;;
12972;SDS011;6551;51.056;9.466;2022-12-29T17:45:42;6.17;;;1.40;;
12972;SDS011;6551;51.056;9.466;2022-12-29T17:48:12;4.07;;;1.20;;
12972;SDS011;6551;51.056;9.466;2022-12-29T17:50:43;4.47;;;1.17;;
12972;SDS011;6551;51.056;9.466;2022-12-29T17:53:16;5.90;;;1.50;;
12972;SDS011;6551;51.056;9.466;2022-12-29T17:55:45;3.60;;;1.37;;
12972;SDS011;6551;51.056;9.466;2022-12-29T17:58:18;5.53;;;0.93;;
12972;SDS011;6551;51.056;9.466;2022-12-29T18:00:50;6.57;;;1.37;;
12972;SDS011;6551;51.056;9.466;2022-12-29T18:03:37;11.53;;;4.30;;
12972;SDS011;6551;51.056;9.466;2022-12-29T18:06:05;6.77;;;2.13;;
12972;SDS011;6551;51.056;9.466;2022-12-29T18:08:35;7.93;;;2.10;;
12972;SDS011;6551;51.056;9.466;2022-12-29T18:11:03;10.13;;;3.37;;